Time;durP1;ratioP1;P1;durP2;ratioP2;P2;SDS_P1;SDS_P2;PMS_P1;PMS_P2;Temp;Humidity;BMP_temperature;BMP_pressure;BME280_temperature;BME280_humidity;BME280_pressure;Samples;Min_cycle;Max_cycle;Signal;HPM_P1;HPM_P2
2021/05/28 00:00:26;;;;;;;5.07;4.15;;;;;;;10.94;98.94;100984.22;4946728;28;20039;-78
2021/05/28 00:02:53;;;;;;;5.47;4.70;;;;;;;10.88;100.00;100989.59;4969785;28;20153;-78
2021/05/28 00:05:22;;;;;;;7.38;4.72;;;;;;;10.88;100.00;100986.97;4953090;28;20536;-78
2021/05/28 00:07:49;;;;;;;5.13;4.00;;;;;;;10.86;100.00;100985.25;4959542;28;20107;-78
2021/05/28 00:10:16;;;;;;;7.93;4.88;;;;;;;10.88;100.00;100988.75;4942925;28;20043;-78
2021/05/28 00:12:43;;;;;;;7.10;4.72;;;;;;;10.88;100.00;100988.75;4971642;28;20473;-78
2021/05/28 00:15:11;;;;;;;5.28;4.45;;;;;;;10.84;100.00;100997.59;4961664;28;20046;-78
2021/05/28 00:17:38;;;;;;;5.25;4.28;;;;;;;10.75;100.00;101003.03;4935806;29;20050;-78
2021/05/28 00:20:07;;;;;;;8.43;5.10;;;;;;;10.76;100.00;101004.78;4943704;28;20062;-78
2021/05/28 00:22:33;;;;;;;4.60;4.18;;;;;;;10.66;100.00;101004.91;4949112;28;20043;-77
2021/05/28 00:25:00;;;;;;;5.97;4.50;;;;;;;10.75;100.00;101005.69;4950053;28;20046;-78
2021/05/28 00:27:32;;;;;;;7.93;4.93;;;;;;;10.79;100.00;101010.03;4946746;28;20197;-78
2021/05/28 00:30:00;;;;;;;5.82;4.60;;;;;;;10.76;100.00;101007.41;4935799;28;20054;-78
2021/05/28 00:32:30;;;;;;;6.82;4.88;;;;;;;10.71;100.00;101013.66;4950027;28;20050;-78
2021/05/28 00:34:57;;;;;;;6.15;4.45;;;;;;;10.75;100.00;101006.53;4948613;28;20050;-78
2021/05/28 00:37:24;;;;;;;10.35;5.70;;;;;;;10.70;100.00;101011.03;4936197;28;20495;-78
2021/05/28 00:39:50;;;;;;;7.57;4.35;;;;;;;10.68;100.00;101008.44;4948850;28;20047;-78
2021/05/28 00:42:17;;;;;;;6.65;4.72;;;;;;;10.75;100.00;101013.59;4921649;28;20493;-78
2021/05/28 00:44:44;;;;;;;5.88;4.40;;;;;;;10.73;100.00;101008.34;4941736;28;20464;-78
2021/05/28 00:47:11;;;;;;;5.95;4.60;;;;;;;10.67;100.00;101019.00;4962959;28;20050;-78
2021/05/28 00:49:38;;;;;;;5.68;4.70;;;;;;;10.67;100.00;101016.34;4934373;29;20102;-77
2021/05/28 00:52:05;;;;;;;6.35;4.28;;;;;;;10.66;100.00;101018.13;4932403;29;20075;-78
2021/05/28 00:54:34;;;;;;;5.05;4.22;;;;;;;10.67;100.00;101025.16;4918345;28;20050;-77
2021/05/28 00:57:01;;;;;;;5.78;5.18;;;;;;;10.66;100.00;101026.06;4939936;29;20047;-78
2021/05/28 00:59:27;;;;;;;6.88;4.75;;;;;;;10.66;100.00;101023.41;4967547;28;20448;-78
2021/05/28 01:01:54;;;;;;;5.15;4.10;;;;;;;10.68;100.00;101028.69;4944682;29;20524;-78
2021/05/28 01:04:23;;;;;;;6.03;4.40;;;;;;;10.66;100.00;101033.13;4918728;28;20043;-78
2021/05/28 01:06:51;;;;;;;6.07;5.00;;;;;;;10.65;100.00;101034.00;4933339;28;20528;-78
2021/05/28 01:09:18;;;;;;;5.78;4.93;;;;;;;10.66;100.00;101036.63;4930999;28;20050;-77
2021/05/28 01:11:45;;;;;;;8.20;5.40;;;;;;;10.78;100.00;101038.22;4942977;28;20038;-77
2021/05/28 01:14:11;;;;;;;6.57;5.30;;;;;;;10.79;100.00;101039.09;4918294;28;20043;-78
2021/05/28 01:16:38;;;;;;;6.13;4.60;;;;;;;10.69;100.00;101041.88;4922440;28;20090;-77
2021/05/28 01:19:05;;;;;;;5.93;4.95;;;;;;;10.77;100.00;101040.91;4943324;28;20074;-78
2021/05/28 01:21:32;;;;;;;6.28;5.00;;;;;;;10.69;100.00;101051.59;4951442;28;20622;-78
2021/05/28 01:23:59;;;;;;;6.00;5.15;;;;;;;10.64;100.00;101049.00;4947915;28;20054;-78
2021/05/28 01:26:25;;;;;;;8.18;5.07;;;;;;;10.66;100.00;101057.75;4963060;28;20035;-78
2021/05/28 01:28:53;;;;;;;4.90;4.13;;;;;;;10.64;100.00;101053.41;4949396;28;20048;-78
2021/05/28 01:31:20;;;;;;;5.63;4.60;;;;;;;10.61;100.00;101053.47;4932668;28;20102;-78
2021/05/28 01:33:46;;;;;;;7.85;5.72;;;;;;;10.57;100.00;101054.38;4930545;28;20457;-77
2021/05/28 01:36:13;;;;;;;5.75;5.15;;;;;;;10.59;100.00;101064.03;4930405;28;20047;-77
2021/05/28 01:38:40;;;;;;;7.07;5.30;;;;;;;10.56;100.00;101057.94;4956170;28;20054;-78
2021/05/28 01:41:07;;;;;;;7.72;4.88;;;;;;;10.51;100.00;101055.38;4944337;28;20041;-78
2021/05/28 01:43:34;;;;;;;8.20;5.18;;;;;;;10.49;100.00;101061.53;4941391;28;20043;-78
2021/05/28 01:46:01;;;;;;;6.65;4.75;;;;;;;10.49;100.00;101057.13;4936435;28;20047;-77
2021/05/28 01:48:27;;;;;;;5.65;4.55;;;;;;;10.49;100.00;101061.53;4935253;28;20704;-78
2021/05/28 01:50:54;;;;;;;7.03;4.38;;;;;;;10.48;100.00;101060.66;4947539;28;20457;-78
2021/05/28 01:53:23;;;;;;;6.95;4.80;;;;;;;10.48;100.00;101065.97;4949674;28;20035;-78
2021/05/28 01:55:51;;;;;;;5.50;4.35;;;;;;;10.50;100.00;101061.53;4928165;28;20039;-78
2021/05/28 01:58:19;;;;;;;5.82;4.13;;;;;;;10.51;100.00;101060.66;4950210;28;20089;-78
2021/05/28 02:00:48;;;;;;;5.30;4.35;;;;;;;10.54;100.00;101063.25;4969936;28;20038;-78
2021/05/28 02:03:15;;;;;;;6.57;5.00;;;;;;;10.61;100.00;101058.75;4947996;28;20062;-78
2021/05/28 02:05:43;;;;;;;4.82;4.10;;;;;;;10.56;100.00;101064.09;4947010;29;20047;-78
2021/05/28 02:08:10;;;;;;;6.60;4.88;;;;;;;10.57;100.00;101064.94;4954407;28;20043;-78
2021/05/28 02:10:37;;;;;;;4.53;3.97;;;;;;;10.55;100.00;101069.41;4922403;29;20047;-78
2021/05/28 02:13:04;;;;;;;5.30;4.05;;;;;;;10.55;100.00;101074.69;4950882;28;20035;-77
2021/05/28 02:15:30;;;;;;;3.83;3.35;;;;;;;10.55;100.00;101070.25;4932325;28;20055;-79
2021/05/28 02:17:57;;;;;;;6.32;4.57;;;;;;;10.65;100.00;101071.88;4959617;28;20043;-79
2021/05/28 02:20:24;;;;;;;6.18;4.10;;;;;;;10.61;100.00;101067.53;4940624;28;20492;-77
2021/05/28 02:22:51;;;;;;;5.20;4.53;;;;;;;10.64;100.00;101070.13;4948734;28;20043;-77
2021/05/28 02:25:18;;;;;;;6.72;4.72;;;;;;;10.69;100.00;101070.09;4966097;28;20151;-77
2021/05/28 02:27:45;;;;;;;5.60;4.18;;;;;;;10.70;100.00;101070.06;4957378;28;20097;-78
2021/05/28 02:30:12;;;;;;;4.10;3.45;;;;;;;10.75;100.00;101071.75;4942337;28;20134;-78
2021/05/28 02:32:39;;;;;;;6.53;4.45;;;;;;;10.69;100.00;101070.09;4954458;28;20055;-77
2021/05/28 02:35:09;;;;;;;6.57;4.53;;;;;;;10.62;100.00;101079.84;4944758;29;20386;-77
2021/05/28 02:37:36;;;;;;;7.82;4.88;;;;;;;10.67;100.00;101079.78;4926411;29;20501;-77
2021/05/28 02:40:04;;;;;;;5.72;4.25;;;;;;;10.63;100.00;101086.88;4923730;29;20091;-78
2021/05/28 02:42:31;;;;;;;5.93;4.68;;;;;;;10.64;100.00;101091.28;4947149;28;20053;-78
2021/05/28 02:44:57;;;;;;;6.38;5.00;;;;;;;10.70;100.00;101090.31;4923824;28;20070;-78
2021/05/28 02:47:24;;;;;;;6.82;5.15;;;;;;;10.67;100.00;101087.69;4950007;28;20477;-78
2021/05/28 02:49:51;;;;;;;5.30;4.45;;;;;;;10.66;100.00;101092.13;4915070;29;20105;-76
2021/05/28 02:52:17;;;;;;;5.40;4.53;;;;;;;10.73;100.00;101086.75;4916533;28;20043;-77
2021/05/28 02:54:45;;;;;;;6.47;5.20;;;;;;;10.64;100.00;101093.91;4957966;28;20039;-77
2021/05/28 02:57:11;;;;;;;7.10;4.28;;;;;;;10.65;100.00;101094.78;4932237;28;20046;-76
2021/05/28 02:59:38;;;;;;;6.15;4.53;;;;;;;10.63;100.00;101094.81;4957494;28;20074;-76
2021/05/28 03:02:05;;;;;;;10.35;6.28;;;;;;;10.57;100.00;101094.88;4965933;28;20050;-77
2021/05/28 03:04:32;;;;;;;6.57;5.05;;;;;;;10.59;100.00;101108.94;4948538;28;20039;-76
2021/05/28 03:06:59;;;;;;;7.43;5.35;;;;;;;10.56;100.00;101103.72;4929123;29;20047;-77
2021/05/28 03:09:26;;;;;;;7.10;5.47;;;;;;;10.55;100.00;101107.25;4946273;28;20122;-77
2021/05/28 03:11:52;;;;;;;6.13;4.80;;;;;;;10.60;100.00;101112.50;4946993;29;20199;-77
2021/05/28 03:14:19;;;;;;;7.65;5.40;;;;;;;10.61;100.00;101112.47;4949363;28;20078;-78
2021/05/28 03:16:46;;;;;;;6.80;5.43;;;;;;;10.58;100.00;101108.97;4962615;28;20047;-77
2021/05/28 03:19:22;;;;;;;6.53;5.05;;;;;;;10.58;100.00;101117.78;4935079;28;20057;-78
2021/05/28 03:24:35;;;;;;;7.50;5.68;;;;;;;10.59;100.00;101116.88;4959804;28;20058;-77
2021/05/28 03:27:02;;;;;;;6.78;5.10;;;;;;;10.60;100.00;101128.34;4965320;28;20089;-76
2021/05/28 03:29:29;;;;;;;11.57;6.32;;;;;;;10.63;100.00;101128.28;4930348;28;20058;-76
2021/05/28 03:31:56;;;;;;;7.18;5.13;;;;;;;10.68;100.00;101130.00;4942701;28;20046;-77
2021/05/28 03:34:22;;;;;;;9.55;5.75;;;;;;;10.70;100.00;101135.25;4948171;28;20034;-78
2021/05/28 03:36:50;;;;;;;6.10;5.07;;;;;;;10.71;100.00;101131.72;4943855;29;20552;-77
2021/05/28 03:39:17;;;;;;;5.75;5.03;;;;;;;10.64;100.00;101133.56;4965389;28;20504;-76
2021/05/28 03:41:43;;;;;;;7.60;5.72;;;;;;;10.70;100.00;101136.13;4943690;28;20046;-76
2021/05/28 03:44:10;;;;;;;6.50;5.40;;;;;;;10.72;100.00;101136.09;4943944;28;20050;-76
2021/05/28 03:46:37;;;;;;;6.82;5.85;;;;;;;10.78;100.00;101140.44;4966903;28;20039;-76
2021/05/28 03:49:03;;;;;;;5.93;4.57;;;;;;;10.68;100.00;101145.84;4949154;28;20582;-77
2021/05/28 03:51:30;;;;;;;5.88;4.78;;;;;;;10.65;100.00;101145.88;4945124;28;20094;-77
2021/05/28 03:53:57;;;;;;;8.05;5.13;;;;;;;10.77;100.00;101144.84;4947884;28;20378;-78
2021/05/28 03:56:23;;;;;;;4.72;4.22;;;;;;;10.70;100.00;101140.53;4948891;28;20035;-77
2021/05/28 03:58:50;;;;;;;7.95;5.70;;;;;;;10.67;100.00;101140.56;4932600;28;20050;-78
2021/05/28 04:01:17;;;;;;;7.15;5.43;;;;;;;10.75;100.00;101148.38;4967575;28;20511;-77
2021/05/28 04:03:44;;;;;;;7.07;5.13;;;;;;;10.60;100.00;101149.47;4938131;28;20043;-77
2021/05/28 04:06:10;;;;;;;6.32;5.22;;;;;;;10.58;100.00;101149.47;4949920;28;20393;-77
2021/05/28 04:08:37;;;;;;;6.57;5.53;;;;;;;10.55;100.00;101153.94;4950553;29;20043;-77
2021/05/28 04:11:04;;;;;;;6.72;4.47;;;;;;;10.55;100.00;101157.44;4933341;28;20043;-76
2021/05/28 04:13:31;;;;;;;6.50;4.97;;;;;;;10.63;100.00;101171.44;4953594;28;21538;-79
2021/05/28 04:15:59;;;;;;;5.93;4.50;;;;;;;10.58;100.00;101165.31;4948355;28;20067;-77
2021/05/28 04:18:26;;;;;;;6.43;4.90;;;;;;;10.62;100.00;101163.53;4938112;28;20039;-77
2021/05/28 04:20:53;;;;;;;7.15;5.57;;;;;;;10.81;100.00;101159.75;4946682;28;20102;-78
2021/05/28 04:23:20;;;;;;;5.45;4.40;;;;;;;10.74;100.00;101170.41;4954866;28;20058;-77
2021/05/28 04:25:47;;;;;;;8.45;5.35;;;;;;;10.76;100.00;101168.63;4947168;28;20050;-76
2021/05/28 04:28:14;;;;;;;7.20;5.72;;;;;;;10.76;100.00;101179.19;4937027;28;20378;-77
2021/05/28 04:30:41;;;;;;;5.82;4.45;;;;;;;10.70;100.00;101170.47;4958474;28;20074;-77
2021/05/28 04:33:08;;;;;;;8.85;5.57;;;;;;;10.75;100.00;101174.81;4939097;28;20535;-77
2021/05/28 04:35:35;;;;;;;6.13;5.15;;;;;;;10.76;100.00;101180.06;4921439;28;20412;-78
2021/05/28 04:38:01;;;;;;;7.15;4.80;;;;;;;10.74;100.00;101178.34;4953014;28;20094;-78
2021/05/28 04:40:30;;;;;;;7.28;5.13;;;;;;;10.84;100.00;101172.03;4957752;28;20679;-77
2021/05/28 04:42:58;;;;;;;5.50;4.57;;;;;;;10.74;100.00;101191.56;4937885;29;20054;-77
2021/05/28 04:45:26;;;;;;;5.13;4.30;;;;;;;10.75;100.00;101188.91;4936044;28;20043;-78
2021/05/28 04:47:53;;;;;;;6.20;5.50;;;;;;;10.82;100.00;101189.69;4916238;29;20047;-76
2021/05/28 04:50:21;;;;;;;5.00;4.32;;;;;;;10.83;100.00;101189.66;4934908;28;20066;-78
2021/05/28 04:52:47;;;;;;;5.45;4.53;;;;;;;10.87;100.00;101190.53;4936596;29;20051;-77
2021/05/28 04:55:14;;;;;;;7.38;4.40;;;;;;;11.00;100.00;101194.75;4949513;28;20040;-76
2021/05/28 04:57:41;;;;;;;5.93;4.28;;;;;;;11.05;100.00;101199.97;4958310;28;20047;-77
2021/05/28 05:00:09;;;;;;;6.25;4.55;;;;;;;11.04;100.00;101203.53;4966579;28;20440;-78
2021/05/28 05:02:36;;;;;;;6.75;4.50;;;;;;;10.87;100.00;101201.97;4949212;28;20042;-77
2021/05/28 05:05:03;;;;;;;7.40;4.57;;;;;;;10.81;100.00;101201.16;4947986;28;20031;-77
2021/05/28 05:07:30;;;;;;;5.82;4.60;;;;;;;10.91;100.00;101206.31;4943139;28;20043;-78
2021/05/28 05:09:57;;;;;;;6.03;4.20;;;;;;;10.84;100.00;101206.41;4948308;29;20821;-77
2021/05/28 05:12:23;;;;;;;5.65;3.83;;;;;;;10.92;100.00;101205.41;4946752;28;20039;-77
2021/05/28 05:14:51;;;;;;;6.03;4.10;;;;;;;10.91;100.00;101208.94;4931739;29;20513;-77
2021/05/28 05:17:18;;;;;;;5.75;4.00;;;;;;;10.88;100.00;101211.66;4950250;28;20098;-77
2021/05/28 05:19:44;;;;;;;5.35;4.60;;;;;;;10.94;100.00;101214.22;4939585;28;20039;-79
2021/05/28 05:22:11;;;;;;;4.68;3.83;;;;;;;10.86;100.00;101204.63;4950502;28;20089;-77
2021/05/28 05:24:37;;;;;;;4.60;3.80;;;;;;;10.95;100.00;101217.75;4962525;28;20047;-76
2021/05/28 05:27:04;;;;;;;4.03;3.50;;;;;;;10.96;100.00;101215.06;4947423;29;20039;-78
2021/05/28 05:29:31;;;;;;;4.85;3.10;;;;;;;10.90;100.00;101215.13;4948656;28;20050;-77
2021/05/28 05:31:58;;;;;;;8.43;3.55;;;;;;;10.83;100.00;101225.81;4965077;28;20062;-78
2021/05/28 05:34:24;;;;;;;4.60;3.15;;;;;;;10.81;100.00;101225.84;4951296;28;20090;-76
2021/05/28 05:36:51;;;;;;;4.75;3.80;;;;;;;10.99;100.00;101222.94;4948296;29;20046;-78
2021/05/28 05:39:18;;;;;;;6.18;3.22;;;;;;;10.94;100.00;101224.78;4917959;28;20043;-77
2021/05/28 05:41:44;;;;;;;4.30;3.42;;;;;;;10.92;100.00;101226.56;4959165;28;20396;-78
2021/05/28 05:44:11;;;;;;;5.00;3.60;;;;;;;10.95;100.00;101230.97;4936662;28;20540;-77
2021/05/28 05:46:39;;;;;;;4.05;2.97;;;;;;;10.96;100.00;101232.69;4965112;28;20043;-77
2021/05/28 05:49:06;;;;;;;5.82;3.17;;;;;;;10.83;100.00;101237.25;4945772;29;20043;-77
2021/05/28 05:51:32;;;;;;;5.63;3.47;;;;;;;10.96;100.00;101233.56;4949123;28;20043;-78
2021/05/28 05:53:59;;;;;;;3.40;3.03;;;;;;;11.01;100.00;101236.13;4949382;29;20124;-77
2021/05/28 05:56:26;;;;;;;4.38;3.08;;;;;;;11.03;100.00;101244.94;4936528;28;20090;-77
2021/05/28 05:58:53;;;;;;;3.08;2.78;;;;;;;11.11;100.00;101243.09;4947654;28;20542;-77
2021/05/28 06:01:20;;;;;;;4.03;3.03;;;;;;;11.14;100.00;101242.16;4948605;28;20039;-77
2021/05/28 06:03:46;;;;;;;3.83;2.92;;;;;;;11.28;100.00;101240.22;4928803;29;20070;-79
2021/05/28 06:06:13;;;;;;;4.45;2.70;;;;;;;11.34;100.00;101245.38;4946638;28;20036;-76
2021/05/28 06:08:41;;;;;;;3.15;2.50;;;;;;;11.33;100.00;101248.94;4937245;28;20094;-79
2021/05/28 06:11:07;;;;;;;4.13;3.05;;;;;;;11.34;100.00;101244.50;4947182;28;20057;-77
2021/05/28 06:13:34;;;;;;;4.15;2.33;;;;;;;11.46;100.00;101252.28;4931940;28;20105;-78
2021/05/28 06:16:01;;;;;;;2.80;2.53;;;;;;;11.56;100.00;101246.84;4962272;28;20046;-77
2021/05/28 06:18:27;;;;;;;3.65;2.90;;;;;;;11.75;100.00;101258.00;4950630;28;20043;-76
2021/05/28 06:20:54;;;;;;;5.85;3.40;;;;;;;11.47;100.00;101256.69;4954761;28;20054;-76
2021/05/28 06:23:21;;;;;;;4.20;3.10;;;;;;;11.78;100.00;101257.97;4950409;28;20043;-76
2021/05/28 06:25:49;;;;;;;4.45;2.92;;;;;;;11.81;100.00;101265.00;4944405;28;20034;-77
2021/05/28 06:28:15;;;;;;;4.18;3.40;;;;;;;11.74;100.00;101258.91;4967215;28;20093;-77
2021/05/28 06:30:42;;;;;;;5.65;3.10;;;;;;;11.62;100.00;101263.53;4931545;29;20047;-77
2021/05/28 06:33:11;;;;;;;5.78;3.30;;;;;;;11.62;100.00;101267.03;4928981;28;20042;-76
2021/05/28 06:35:39;;;;;;;5.03;2.75;;;;;;;11.70;100.00;101266.94;4958096;28;20042;-76
2021/05/28 06:38:08;;;;;;;3.85;2.90;;;;;;;11.57;100.00;101268.88;4928553;29;20070;-76
2021/05/28 06:40:35;;;;;;;3.28;2.97;;;;;;;11.55;100.00;101284.78;4928926;28;20051;-76
2021/05/28 06:43:02;;;;;;;4.43;3.22;;;;;;;11.67;100.00;101283.72;4957987;28;20039;-77
2021/05/28 06:45:29;;;;;;;4.15;2.90;;;;;;;11.76;100.00;101280.91;4961621;28;20034;-77
2021/05/28 06:47:56;;;;;;;3.25;2.63;;;;;;;11.73;100.00;101288.06;4922588;28;20098;-76
2021/05/28 06:50:23;;;;;;;3.53;2.70;;;;;;;11.90;100.00;101288.69;4931534;28;20041;-76
2021/05/28 06:52:49;;;;;;;4.55;2.80;;;;;;;11.67;100.00;101293.44;4942241;29;20048;-77
2021/05/28 06:55:16;;;;;;;3.42;2.70;;;;;;;11.75;100.00;101294.19;4930893;28;20041;-76
2021/05/28 06:57:43;;;;;;;5.00;2.80;;;;;;;11.71;100.00;101293.38;4947349;29;20442;-77
2021/05/28 07:00:10;;;;;;;3.00;2.70;;;;;;;11.94;100.00;101287.75;4957497;28;20129;-76
2021/05/28 07:02:37;;;;;;;4.43;2.53;;;;;;;11.97;100.00;101290.34;4929762;29;20039;-76
2021/05/28 07:05:06;;;;;;;3.45;2.50;;;;;;;12.20;100.00;101297.94;4958276;28;20046;-77
2021/05/28 07:07:33;;;;;;;3.55;2.42;;;;;;;12.29;100.00;101294.25;4939668;28;20039;-77
2021/05/28 07:10:00;;;;;;;3.58;2.70;;;;;;;12.51;100.00;101298.25;4947573;29;20051;-76
2021/05/28 07:12:27;;;;;;;3.75;2.33;;;;;;;12.79;97.88;101293.31;4951050;28;20063;-76
2021/05/28 07:14:53;;;;;;;2.35;1.90;;;;;;;12.78;95.08;101298.63;4945115;29;20039;-76
2021/05/28 07:17:20;;;;;;;3.85;2.65;;;;;;;12.86;94.80;101297.59;4930448;29;20043;-77
2021/05/28 07:19:46;;;;;;;2.40;2.00;;;;;;;12.98;96.72;101296.47;4931418;29;20047;-77
2021/05/28 07:22:13;;;;;;;3.92;1.90;;;;;;;13.26;96.54;101309.19;4943315;29;20039;-77
2021/05/28 07:24:42;;;;;;;3.15;2.10;;;;;;;13.42;92.99;101308.81;4925660;28;20406;-77
2021/05/28 07:27:09;;;;;;;2.03;1.83;;;;;;;13.60;90.45;101311.97;4947175;28;20065;-77
2021/05/28 07:29:35;;;;;;;2.40;1.77;;;;;;;13.66;90.73;101310.06;4935941;28;20607;-77
2021/05/28 07:32:03;;;;;;;2.38;1.75;;;;;;;13.80;86.31;101310.63;4943610;28;20090;-77
2021/05/28 07:34:29;;;;;;;2.00;1.70;;;;;;;13.60;84.10;101307.53;4950857;28;20100;-76
2021/05/28 07:36:56;;;;;;;1.85;1.60;;;;;;;13.58;85.77;101313.81;4930400;28;20043;-77
2021/05/28 07:39:23;;;;;;;1.73;1.42;;;;;;;13.62;83.58;101318.13;4938286;28;20039;-77
2021/05/28 07:41:49;;;;;;;2.95;1.48;;;;;;;13.65;83.04;101321.59;4960700;28;20103;-77
2021/05/28 07:44:16;;;;;;;2.08;1.40;;;;;;;13.66;84.43;101320.69;4938321;28;20035;-77
2021/05/28 07:46:45;;;;;;;2.22;1.40;;;;;;;13.60;83.42;101322.59;4928380;28;20047;-77
2021/05/28 07:49:13;;;;;;;2.28;1.17;;;;;;;13.95;84.89;101311.16;4937932;29;20048;-77
2021/05/28 07:51:40;;;;;;;1.60;1.50;;;;;;;14.17;85.53;101316.81;4931063;29;20043;-77
2021/05/28 07:54:07;;;;;;;1.27;1.10;;;;;;;14.36;81.54;101313.66;4932575;29;20051;-77
2021/05/28 07:56:34;;;;;;;1.30;1.17;;;;;;;14.47;79.90;101323.19;4954813;28;20035;-77
2021/05/28 07:59:02;;;;;;;1.58;1.30;;;;;;;14.40;82.29;101325.09;4947608;29;20525;-76
2021/05/28 08:01:29;;;;;;;3.65;1.67;;;;;;;14.19;81.51;101338.91;4947642;28;20036;-77
2021/05/28 08:03:56;;;;;;;1.63;1.42;;;;;;;13.84;81.69;101334.44;4930194;29;20054;-77
2021/05/28 08:06:27;;;;;;;1.80;1.38;;;;;;;13.62;83.08;101331.38;4927326;28;20066;-77
2021/05/28 08:08:54;;;;;;;1.85;1.40;;;;;;;13.47;84.33;101338.81;4933893;29;20044;-77
2021/05/28 08:11:21;;;;;;;1.95;1.40;;;;;;;13.33;83.43;101332.91;4948197;28;20086;-77
2021/05/28 08:13:48;;;;;;;2.50;1.48;;;;;;;13.11;85.34;101342.16;4935424;29;20501;-77
2021/05/28 08:16:15;;;;;;;2.85;1.52;;;;;;;13.08;86.88;101343.13;4944372;28;20101;-77
2021/05/28 08:18:42;;;;;;;1.70;1.40;;;;;;;13.09;88.77;101344.00;4950368;29;20191;-77
2021/05/28 08:21:10;;;;;;;2.80;1.23;;;;;;;13.27;87.31;101346.28;4962968;28;20090;-77
2021/05/28 08:23:37;;;;;;;1.45;1.10;;;;;;;13.32;86.64;101347.09;4918127;29;20107;-77
2021/05/28 08:26:06;;;;;;;1.38;1.15;;;;;;;13.00;79.41;101345.03;4939680;28;20042;-77
2021/05/28 08:28:35;;;;;;;1.65;1.10;;;;;;;13.40;81.28;101354.88;4916077;29;20110;-77
2021/05/28 08:31:03;;;;;;;2.40;1.08;;;;;;;13.68;79.22;101353.38;4932419;29;20054;-78
2021/05/28 08:33:30;;;;;;;1.63;1.10;;;;;;;13.92;80.25;101348.41;4920787;28;20043;-77
2021/05/28 08:35:57;;;;;;;1.05;0.95;;;;;;;14.25;79.92;101349.41;4942363;28;20095;-77
2021/05/28 08:38:23;;;;;;;3.42;1.17;;;;;;;14.62;75.18;101352.03;4950131;28;20480;-78
2021/05/28 08:40:50;;;;;;;2.95;1.15;;;;;;;15.09;74.63;101350.75;4947109;29;20094;-78
2021/05/28 08:43:17;;;;;;;1.00;0.90;;;;;;;15.17;71.51;101350.53;4949926;28;20039;-77
2021/05/28 08:45:45;;;;;;;2.33;1.13;;;;;;;15.27;76.34;101346.69;4928353;29;20095;-77
2021/05/28 08:48:16;;;;;;;2.25;1.00;;;;;;;15.30;71.41;101354.59;4929451;29;20066;-77
2021/05/28 08:50:44;;;;;;;0.80;0.80;;;;;;;15.12;69.05;101350.66;4927411;29;20107;-77
2021/05/28 08:53:12;;;;;;;0.80;0.77;;;;;;;15.61;65.31;101345.72;4931938;29;20098;-78
2021/05/28 08:55:40;;;;;;;3.05;0.80;;;;;;;15.95;67.58;101349.06;4954835;28;20058;-77
2021/05/28 08:58:09;;;;;;;1.60;0.80;;;;;;;16.07;62.96;101350.50;4956781;28;20039;-77
2021/05/28 09:00:37;;;;;;;0.90;0.77;;;;;;;15.52;61.90;101349.50;4947607;28;20047;-76
2021/05/28 09:03:31;;;;;;;0.85;0.82;;;;;;;15.58;64.52;101351.97;4949952;29;20035;-78
2021/05/28 09:06:00;;;;;;;0.93;0.82;;;;;;;15.48;66.65;101358.50;4948943;28;20098;-77
2021/05/28 09:08:28;;;;;;;1.95;1.00;;;;;;;14.12;67.60;101375.38;4934782;28;20047;-77
2021/05/28 09:11:13;;;;;;;2.58;0.80;;;;;;;13.84;70.45;101376.94;4933416;29;20048;-77
2021/05/28 09:13:45;;;;;;;1.48;0.90;;;;;;;13.46;75.37;101390.16;4949661;28;20049;-77
2021/05/28 09:16:16;;;;;;;4.55;1.60;;;;;;;13.20;80.54;101400.38;4957594;28;20097;-77
2021/05/28 09:18:50;;;;;;;1.92;1.00;;;;;;;12.93;83.15;101392.03;4939608;29;20138;-77
2021/05/28 09:21:35;;;;;;;2.65;1.00;;;;;;;12.86;86.47;101392.16;4940762;28;20117;-77
2021/05/28 09:24:04;;;;;;;1.92;0.90;;;;;;;12.74;85.74;101373.84;4931588;28;20044;-77
2021/05/28 09:26:32;;;;;;;2.00;1.05;;;;;;;12.64;86.68;101373.13;4939899;29;20134;-78
2021/05/28 09:29:00;;;;;;;1.23;1.00;;;;;;;12.66;88.15;101373.97;4964724;28;20043;-78
2021/05/28 09:31:28;;;;;;;1.80;1.00;;;;;;;12.71;89.60;101379.19;4937523;28;20059;-77
2021/05/28 09:33:57;;;;;;;2.00;1.52;;;;;;;12.75;88.82;101387.06;4945572;29;20039;-77
2021/05/28 09:36:25;;;;;;;1.48;1.23;;;;;;;12.66;89.54;101374.84;4933155;29;20447;-78
2021/05/28 09:39:09;;;;;;;1.40;1.00;;;;;;;12.74;91.32;101395.03;4945980;29;20176;-77
2021/05/28 09:41:51;;;;;;;1.38;1.00;;;;;;;12.90;92.13;101394.75;4916668;29;20043;-77
2021/05/28 09:44:40;;;;;;;3.17;1.50;;;;;;;13.09;91.04;101391.75;4949982;28;20034;-78
2021/05/28 09:47:13;;;;;;;2.35;1.70;;;;;;;13.41;91.09;101396.44;4969424;28;20047;-77
2021/05/28 09:49:51;;;;;;;1.77;1.40;;;;;;;13.68;90.70;101397.66;4971134;28;20070;-78
2021/05/28 09:52:21;;;;;;;2.58;1.20;;;;;;;13.71;86.85;101398.47;4942269;29;20048;-77
2021/05/28 09:55:04;;;;;;;2.13;1.10;;;;;;;13.84;87.52;101390.22;4928717;29;20051;-77
2021/05/28 09:57:33;;;;;;;1.52;0.98;;;;;;;14.14;88.38;101396.63;4945699;28;20059;-78
2021/05/28 10:00:04;;;;;;;1.73;1.30;;;;;;;14.16;86.72;101389.50;4952560;28;20413;-77
2021/05/28 10:02:33;;;;;;;2.40;1.23;;;;;;;14.32;88.19;101393.53;4948143;28;20484;-77
2021/05/28 10:05:00;;;;;;;3.58;2.00;;;;;;;14.58;86.81;101393.78;4926699;29;20068;-77
2021/05/28 10:07:29;;;;;;;2.30;1.60;;;;;;;14.77;86.26;101391.53;4957603;28;20039;-77
2021/05/28 10:09:56;;;;;;;1.77;1.42;;;;;;;14.84;88.55;101384.25;4935869;29;20058;-77
2021/05/28 10:12:24;;;;;;;2.72;1.58;;;;;;;15.11;87.26;101393.28;4944678;28;20509;-77
2021/05/28 10:14:51;;;;;;;1.50;1.30;;;;;;;15.19;82.27;101381.50;4965698;28;20054;-77
2021/05/28 10:17:19;;;;;;;2.13;1.70;;;;;;;15.33;84.87;101381.13;4937506;28;20101;-77
2021/05/28 10:19:46;;;;;;;1.58;1.30;;;;;;;15.41;81.80;101386.22;4941347;28;20621;-77
2021/05/28 10:22:14;;;;;;;3.00;1.75;;;;;;;15.42;77.63;101382.66;4929328;29;20055;-77
2021/05/28 10:24:40;;;;;;;1.80;1.52;;;;;;;15.54;79.03;101381.41;4914636;29;20570;-77
2021/05/28 10:27:07;;;;;;;2.33;1.48;;;;;;;15.56;77.87;101383.13;4946661;28;20042;-77
2021/05/28 10:29:34;;;;;;;2.20;1.63;;;;;;;15.69;78.95;101379.19;4940511;28;20038;-77
2021/05/28 10:32:10;;;;;;;1.73;1.55;;;;;;;15.52;76.33;101378.78;4945493;28;20505;-77
2021/05/28 10:35:13;;;;;;;2.33;1.67;;;;;;;15.97;78.49;101381.00;4935609;29;20539;-77
2021/05/28 10:37:44;;;;;;;2.38;1.70;;;;;;;16.18;76.14;101376.81;4927800;28;20505;-77
2021/05/28 10:40:28;;;;;;;2.47;1.60;;;;;;;16.13;76.08;101374.25;4933249;28;20053;-78
2021/05/28 10:42:56;;;;;;;2.20;1.45;;;;;;;16.08;76.53;101380.69;4921377;28;20056;-77
2021/05/28 10:45:54;;;;;;;2.30;2.00;;;;;;;15.77;74.64;101378.97;4959017;28;20141;-78
2021/05/28 10:48:40;;;;;;;3.00;1.88;;;;;;;15.62;73.33;101371.44;4939170;28;20440;-76
2021/05/28 10:51:12;;;;;;;3.00;1.90;;;;;;;15.49;71.30;101370.91;4958003;28;20500;-76
2021/05/28 10:53:41;;;;;;;3.17;1.67;;;;;;;15.12;70.97;101373.72;4938349;28;20098;-76
2021/05/28 10:56:09;;;;;;;3.03;1.42;;;;;;;15.27;73.45;101380.41;4953890;28;20071;-76
2021/05/28 10:58:54;;;;;;;1.92;1.80;;;;;;;15.22;68.43;101388.56;4947133;28;20051;-76
2021/05/28 11:01:36;;;;;;;1.58;1.20;;;;;;;15.51;65.89;101392.16;4939960;28;20681;-77
2021/05/28 11:04:21;;;;;;;1.60;1.00;;;;;;;15.51;66.36;101389.50;4959742;28;20105;-78
2021/05/28 11:10:02;;;;;;;1.38;1.27;;;;;;;15.00;62.90;101406.00;4952870;28;20508;-78
2021/05/28 11:12:34;;;;;;;2.30;1.30;;;;;;;14.75;66.39;101404.00;4954939;28;20073;-77
2021/05/28 11:15:09;;;;;;;1.02;0.93;;;;;;;14.86;69.25;101409.03;4961460;28;20042;-78
2021/05/28 11:17:56;;;;;;;;;;;;;;;14.56;63.13;101403.59;4940580;28;20793;-78
2021/05/28 11:20:24;;;;;;;1.38;0.90;;;;;;;14.53;66.03;101419.59;4951614;28;19927;-78
2021/05/28 11:22:51;;;;;;;1.60;1.05;;;;;;;14.61;67.10;101417.63;4940700;28;20047;-76
2021/05/28 11:25:20;;;;;;;2.28;1.23;;;;;;;14.69;69.02;101412.13;4968359;28;20072;-77
2021/05/28 11:28:07;;;;;;;1.63;1.40;;;;;;;14.18;64.84;101422.22;4923449;28;20043;-76
2021/05/28 11:30:50;;;;;;;2.38;1.30;;;;;;;14.25;73.82;101423.81;4926370;29;20684;-77